createdAt,value
2018-11-22T12:17:46.650Z,5.90
2018-11-22T12:20:16.051Z,6.00
2018-11-22T12:22:45.851Z,6.00
2018-11-22T12:25:15.875Z,6.10
2018-11-22T12:27:45.499Z,6.10
2018-11-22T12:30:17.429Z,6.10
2018-11-22T12:32:51.236Z,6.00
2018-11-22T12:36:23.796Z,6.00
2018-11-22T12:38:52.571Z,6.00
2018-11-22T12:41:21.244Z,6.10
2018-11-22T12:43:49.865Z,6.10
2018-11-22T12:46:18.494Z,6.20
2018-11-22T12:48:47.750Z,6.20
2018-11-22T12:51:16.362Z,6.20
2018-11-22T12:53:45.003Z,6.20
2018-11-22T12:56:13.647Z,6.20
2018-11-22T12:58:42.301Z,6.20
2018-11-22T13:01:10.917Z,6.20
2018-11-22T13:03:39.465Z,6.20
2018-11-22T13:06:08.181Z,6.30
2018-11-22T13:08:36.778Z,6.40
2018-11-22T13:11:05.520Z,6.40
2018-11-22T13:13:34.095Z,6.40
2018-11-22T13:16:02.752Z,6.40
2018-11-22T13:18:31.382Z,6.40
2018-11-22T13:21:00.023Z,6.40
2018-11-22T13:23:28.656Z,6.30
2018-11-22T13:25:57.265Z,6.30
2018-11-22T13:28:25.956Z,6.30
2018-11-22T13:30:54.585Z,6.30
2018-11-22T13:33:23.147Z,6.30
2018-11-22T13:35:51.753Z,6.20
2018-11-22T13:38:20.420Z,6.20
2018-11-22T13:40:49.099Z,6.30
2018-11-22T13:43:17.684Z,6.30
2018-11-22T13:45:46.360Z,6.30
2018-11-22T13:48:14.981Z,6.30
2018-11-22T13:50:43.554Z,6.30
2018-11-22T13:53:12.124Z,6.30
2018-11-22T13:55:40.713Z,6.30
2018-11-22T13:58:09.354Z,6.30
2018-11-22T14:00:37.935Z,6.30
2018-11-22T14:03:07.636Z,6.40
2018-11-22T14:05:36.174Z,6.40
2018-11-22T14:08:04.932Z,6.30
2018-11-22T14:10:33.506Z,6.30
2018-11-22T14:13:02.040Z,6.40
2018-11-22T14:15:31.625Z,6.40
2018-11-22T14:18:03.290Z,6.30
2018-11-22T14:20:33.183Z,6.30
2018-11-22T14:23:01.855Z,6.30
2018-11-22T14:25:30.895Z,6.30
2018-11-22T14:27:59.571Z,6.30
2018-11-22T14:30:30.696Z,6.20
2018-11-22T14:32:59.343Z,6.20
2018-11-22T14:35:28.072Z,6.30
2018-11-22T14:37:56.730Z,6.20
2018-11-22T14:40:26.977Z,6.20
2018-11-22T14:42:56.211Z,6.20
2018-11-22T14:45:25.314Z,6.30
2018-11-22T14:47:55.148Z,6.30
2018-11-22T14:50:27.908Z,6.30
2018-11-22T14:53:30.469Z,6.30
2018-11-22T14:55:59.104Z,6.30
2018-11-22T14:58:28.671Z,6.30
2018-11-22T15:00:57.350Z,6.30
2018-11-22T15:03:26.525Z,6.20
2018-11-22T15:05:54.768Z,6.20
2018-11-22T15:08:23.413Z,6.10
2018-11-22T15:10:52.069Z,6.10
2018-11-22T15:13:20.710Z,6.20
2018-11-22T15:15:49.356Z,6.10
2018-11-22T15:18:17.953Z,6.10
2018-11-22T15:20:46.508Z,6.10
2018-11-22T15:23:15.082Z,6.00
2018-11-22T15:25:43.653Z,5.90
2018-11-22T15:28:12.254Z,5.90
2018-11-22T15:30:40.899Z,5.90
2018-11-22T15:33:09.485Z,5.90
2018-11-22T15:35:38.105Z,5.90
2018-11-22T15:38:06.847Z,5.80
2018-11-22T15:40:35.431Z,5.80
2018-11-22T15:43:04.475Z,5.70
2018-11-22T15:45:35.012Z,5.70
2018-11-22T15:48:01.648Z,5.60
2018-11-22T15:50:30.383Z,5.60
2018-11-22T15:52:58.921Z,5.40
2018-11-22T15:55:28.035Z,5.40
2018-11-22T15:57:58.263Z,5.40
2018-11-22T16:00:33.288Z,5.30
2018-11-22T16:03:02.401Z,5.30
2018-11-22T16:05:31.639Z,5.20
2018-11-22T16:08:00.276Z,5.10
2018-11-22T16:10:30.567Z,5.10
2018-11-22T16:13:02.164Z,5.00
2018-11-22T16:15:44.389Z,5.00
2018-11-22T16:18:13.097Z,4.90
2018-11-22T16:20:41.706Z,4.90
2018-11-22T16:23:10.471Z,4.80
2018-11-22T16:25:39.027Z,4.80
2018-11-22T16:28:07.867Z,4.80
2018-11-22T16:30:36.914Z,4.70
2018-11-22T16:33:05.653Z,4.70
2018-11-22T16:35:34.888Z,4.70
2018-11-22T16:38:03.552Z,4.60
2018-11-22T16:40:32.214Z,4.60
2018-11-22T16:43:02.266Z,4.60
2018-11-22T16:45:32.150Z,4.60
2018-11-22T16:48:02.192Z,4.60
2018-11-22T16:50:31.858Z,4.60
2018-11-22T16:53:00.420Z,4.60
2018-11-22T16:55:29.109Z,4.50
2018-11-22T16:57:58.964Z,4.50
2018-11-22T17:00:28.883Z,4.50
2018-11-22T17:02:58.857Z,4.40
2018-11-22T17:05:27.909Z,4.40
2018-11-22T17:07:56.516Z,4.30
2018-11-22T17:10:26.377Z,4.20
2018-11-22T17:12:56.252Z,4.20
2018-11-22T17:15:26.412Z,4.20
2018-11-22T17:17:55.858Z,4.20
2018-11-22T17:20:24.875Z,4.20
2018-11-22T17:22:54.071Z,4.20
2018-11-22T17:25:24.979Z,4.10
2018-11-22T17:27:55.316Z,4.10
2018-11-22T17:30:26.778Z,4.10
2018-11-22T17:32:55.361Z,4.10
2018-11-22T17:35:25.094Z,4.10
2018-11-22T17:37:54.652Z,4.10
2018-11-22T17:40:26.472Z,4.00
2018-11-22T17:42:55.286Z,4.00
2018-11-22T17:45:32.868Z,3.90
2018-11-22T17:48:01.671Z,3.90
2018-11-22T17:50:32.132Z,3.90
2018-11-22T17:53:01.180Z,3.90
2018-11-22T17:55:30.756Z,3.90
2018-11-22T17:57:59.389Z,3.90
2018-11-22T18:00:33.533Z,3.90
2018-11-22T18:03:03.088Z,3.90
2018-11-22T18:05:31.965Z,3.90
2018-11-22T18:08:00.493Z,3.90
2018-11-22T18:10:33.560Z,3.90
2018-11-22T18:13:02.164Z,3.90
2018-11-22T18:15:32.833Z,3.90
2018-11-22T18:18:01.461Z,4.00
2018-11-22T18:20:31.151Z,4.10
2018-11-22T18:23:00.735Z,4.20
2018-11-22T18:25:30.612Z,4.20
2018-11-22T18:27:59.598Z,4.30
2018-11-22T18:30:29.520Z,4.30
2018-11-22T18:32:59.840Z,4.40
2018-11-22T18:35:28.502Z,4.40
2018-11-22T18:37:57.103Z,4.40
2018-11-22T18:40:26.956Z,4.40
2018-11-22T18:42:56.545Z,4.40
2018-11-22T18:45:30.354Z,4.40
2018-11-22T18:47:59.447Z,4.40
2018-11-22T18:50:28.948Z,4.40
2018-11-22T18:52:57.510Z,4.40
2018-11-22T18:55:26.148Z,4.40
2018-11-22T18:57:54.751Z,4.40
2018-11-22T19:00:27.958Z,4.40
2018-11-22T19:02:58.107Z,4.40
2018-11-22T19:05:27.118Z,4.40
2018-11-22T19:07:56.703Z,4.50
2018-11-22T19:10:33.016Z,4.40
2018-11-22T19:13:03.066Z,4.40
2018-11-22T19:15:33.220Z,4.30
2018-11-22T19:18:02.019Z,4.20
2018-11-22T19:20:32.699Z,4.20
2018-11-22T19:23:02.202Z,4.20
2018-11-22T19:25:30.939Z,4.10
2018-11-22T19:28:01.150Z,4.10
2018-11-22T19:30:36.873Z,4.10
2018-11-22T19:33:01.390Z,4.00
2018-11-22T19:35:31.386Z,4.00
2018-11-22T19:38:00.076Z,4.00
2018-11-22T19:40:30.141Z,4.00
2018-11-22T19:43:00.035Z,4.00
2018-11-22T19:45:30.180Z,3.90
2018-11-22T19:47:59.054Z,3.90
2018-11-22T19:50:28.561Z,3.90
2018-11-22T19:52:58.248Z,3.90
2018-11-22T19:55:28.347Z,3.90
2018-11-22T19:57:58.744Z,3.90
2018-11-22T20:00:27.994Z,3.80
2018-11-22T20:02:57.928Z,3.80
2018-11-22T20:05:27.560Z,3.80
2018-11-22T20:07:57.827Z,3.70
2018-11-22T20:10:28.983Z,3.80
2018-11-22T20:12:57.588Z,3.70
2018-11-22T20:15:26.328Z,3.70
2018-11-22T20:17:55.652Z,3.70
2018-11-22T20:20:24.774Z,3.60
2018-11-22T20:22:54.589Z,3.60
2018-11-22T20:25:23.313Z,3.60
2018-11-22T20:27:53.125Z,3.60
2018-11-22T20:30:25.386Z,3.60
2018-11-22T20:32:54.802Z,3.50
2018-11-22T20:35:23.861Z,3.50
2018-11-22T20:37:53.042Z,3.50
2018-11-22T20:40:22.769Z,3.50
2018-11-22T20:42:51.608Z,3.50
2018-11-22T20:45:21.633Z,3.50
2018-11-22T20:47:51.842Z,3.50
2018-11-22T20:50:21.860Z,3.50
2018-11-22T20:52:50.495Z,3.40
2018-11-22T20:55:23.727Z,3.50
2018-11-22T20:57:53.412Z,3.40
2018-11-22T21:00:23.485Z,3.40
2018-11-22T21:02:52.072Z,3.40
2018-11-22T21:05:21.443Z,3.40
2018-11-22T21:07:50.164Z,3.50
2018-11-22T21:10:20.211Z,3.40
2018-11-22T21:12:48.843Z,3.40
2018-11-22T21:15:20.546Z,3.40
2018-11-22T21:17:50.289Z,3.40
2018-11-22T21:20:20.347Z,3.40
2018-11-22T21:22:48.893Z,3.50
2018-11-22T21:25:18.692Z,3.50
2018-11-22T21:27:47.264Z,3.50
2018-11-22T21:30:21.229Z,3.50
2018-11-22T21:32:50.696Z,3.60
2018-11-22T21:35:19.672Z,3.60
2018-11-22T21:37:48.866Z,3.60
2018-11-22T21:40:18.413Z,3.60
2018-11-22T21:42:47.115Z,3.50
2018-11-22T21:45:18.171Z,3.60
2018-11-22T21:47:46.857Z,3.50
2018-11-22T21:50:16.677Z,3.40
2018-11-22T21:52:45.413Z,3.40
2018-11-22T21:55:15.588Z,3.40
2018-11-22T21:57:44.890Z,3.40
2018-11-22T22:00:19.496Z,3.40
2018-11-22T22:02:52.755Z,3.40
2018-11-22T22:05:18.244Z,3.30
2018-11-22T22:07:46.848Z,3.30
2018-11-22T22:10:15.469Z,3.30
2018-11-22T22:12:44.062Z,3.30
2018-11-22T22:15:14.875Z,3.30
2018-11-22T22:17:44.324Z,3.20
2018-11-22T22:20:15.553Z,3.20
2018-11-22T22:22:44.181Z,3.20
2018-11-22T22:25:15.177Z,3.20
2018-11-22T22:27:44.399Z,3.20
2018-11-22T22:30:15.033Z,3.20
2018-11-22T22:32:44.321Z,3.20
2018-11-22T22:35:12.913Z,3.10
2018-11-22T22:37:41.496Z,3.10
2018-11-22T22:40:12.962Z,3.10
2018-11-22T22:42:42.677Z,3.10
2018-11-22T22:45:12.072Z,3.10
2018-11-22T22:47:40.635Z,3.10
2018-11-22T22:50:11.814Z,3.00
2018-11-22T22:52:40.371Z,3.10
2018-11-22T22:55:09.717Z,3.00
2018-11-22T22:57:38.387Z,3.10
2018-11-22T23:00:16.093Z,3.10
2018-11-22T23:02:44.803Z,3.00
2018-11-22T23:05:13.409Z,3.00
2018-11-22T23:07:42.003Z,3.00
2018-11-22T23:10:10.655Z,3.00
2018-11-22T23:12:39.283Z,3.00
2018-11-22T23:15:10.401Z,3.00
2018-11-22T23:17:39.685Z,3.00
2018-11-22T23:20:10.950Z,3.00
2018-11-22T23:22:40.145Z,3.00
2018-11-22T23:25:09.447Z,2.90
2018-11-22T23:27:38.411Z,2.90
2018-11-22T23:30:13.568Z,2.90
2018-11-22T23:32:42.906Z,2.90
2018-11-22T23:35:11.462Z,2.90
2018-11-22T23:37:40.158Z,2.90
2018-11-22T23:40:10.818Z,2.80
2018-11-22T23:42:39.793Z,2.80
2018-11-22T23:45:09.883Z,2.80
2018-11-22T23:47:39.073Z,2.80
2018-11-22T23:50:09.682Z,2.80
2018-11-22T23:52:38.251Z,2.70
2018-11-22T23:55:07.465Z,2.70
2018-11-22T23:57:36.057Z,2.70
